首页
METAR-TAF:

METAR-TAF

机场 :

合艾国际机场

合艾, 泰国

纬度: 06-55N, 经度: 100-26E, 海拔: 27米

当前天气观测

该预报发布于21分钟前的07:00 UTC
风速11节,风向东转东北,在东北东转东南之间变化
温度 38°C
湿度 51%
气压 1006 hPa
能见度10公里或以上
少量云层高于1800英尺, 积雨云.
散云层高于2000英尺
多云层高于10000英尺
附近有阵雨,

METAR: VTSS 220700Z 06011KT 050V110 9999 VCSH FEW018CB SCT020 BKN100 38/26 Q1006 NOSIG

时间: 14:21 (07:21 UTC)

预报

该预报发布于2小时和21分钟前的05:00 UTC
预报有效从22日的 06点(UTC)到 23日的 06点(UTC)
风速8节,风向东转东北
能见度10公里或以上
散云层高于2000英尺
成为
从 22日的 13点(UTC)到 22日的 15点(UTC)
风速3节,风向西转西南
成为
从 23日的 03点(UTC)到 23日的 05点(UTC)
风速8节,风向东转东北

TAF: VTSS 220500Z 2206/2306 06008KT 9999 SCT020 BECMG 2213/2215 24003KT BECMG 2303/2305 06008KT

超过4000个机场的气象观测和天气预报(METAR&TAF报告)。

可查询的气象台以黄色和红色小点在地图上表示。

将鼠标移到小点上方,可查看气象台名称。

然后点击查看天气观测和预报。

如需切换地图:点击带黑十字的绿色按钮放大地图;点击带横线的绿色按钮缩小地图;或者点击绿色箭头查看邻近地区的地图。


METAR-TAF: